Time;durP1;ratioP1;P1;durP2;ratioP2;P2;SDS_P1;SDS_P2;PMS_P1;PMS_P2;Temp;Humidity;BMP_temperature;BMP_pressure;BME280_temperature;BME280_humidity;BME280_pressure;Samples;Min_cycle;Max_cycle;Signal;HPM_P1;HPM_P2
2021/03/19 00:03:34;;;;;;;8.10;3.72;;;1.60;90.20;;;;;;8320332;28;20180;-70
2021/03/19 00:07:50;;;;;;;6.88;3.35;;;1.70;88.50;;;;;;8304532;28;22686;-71
2021/03/19 00:11:57;;;;;;;7.05;3.33;;;1.50;86.70;;;;;;8293488;28;20071;-70
2021/03/19 00:16:04;;;;;;;6.80;3.50;;;1.50;87.30;;;;;;8329841;28;20431;-70
2021/03/19 00:20:08;;;;;;;7.13;3.90;;;1.60;86.30;;;;;;8341507;28;20098;-70
2021/03/19 00:24:13;;;;;;;9.48;4.00;;;1.30;85.60;;;;;;8327783;28;20052;-70
2021/03/19 00:28:17;;;;;;;7.80;3.30;;;1.40;85.20;;;;;;8331937;28;20037;-70
2021/03/19 00:32:21;;;;;;;7.38;3.28;;;1.30;85.10;;;;;;8312488;28;20103;-71
2021/03/19 00:36:26;;;;;;;7.28;3.53;;;1.30;84.90;;;;;;8324643;28;20067;-71
2021/03/19 00:40:31;;;;;;;9.52;4.28;;;1.20;84.70;;;;;;8324106;28;20048;-69
2021/03/19 00:44:38;;;;;;;5.85;3.45;;;1.20;84.70;;;;;;8338352;28;20076;-69
2021/03/19 00:48:45;;;;;;;8.18;3.88;;;1.20;84.80;;;;;;8349442;28;20049;-69
2021/03/19 00:52:50;;;;;;;8.95;3.03;;;1.10;84.60;;;;;;8340639;28;20057;-69
2021/03/19 00:56:54;;;;;;;8.75;3.88;;;1.00;84.70;;;;;;8326877;28;20135;-69
2021/03/19 01:01:01;;;;;;;9.52;3.65;;;1.00;84.60;;;;;;8329463;28;20056;-69
2021/03/19 01:05:28;;;;;;;7.72;3.33;;;0.90;84.60;;;;;;8316207;28;20495;-69
2021/03/19 01:09:35;;;;;;;7.15;3.50;;;1.00;85.30;;;;;;8333600;28;20053;-70
2021/03/19 01:13:40;;;;;;;10.05;3.80;;;0.80;84.70;;;;;;8331288;28;20060;-71
2021/03/19 01:17:44;;;;;;;6.20;3.25;;;0.90;85.00;;;;;;8340865;28;20598;-71
2021/03/19 01:21:53;;;;;;;6.88;3.33;;;0.90;85.30;;;;;;8331015;28;20524;-70
2021/03/19 01:25:57;;;;;;;7.68;3.55;;;0.90;86.00;;;;;;8310347;28;20408;-71
2021/03/19 01:30:05;;;;;;;7.65;3.70;;;0.90;85.70;;;;;;8318855;28;20128;-71
2021/03/19 01:34:09;;;;;;;8.52;4.15;;;1.00;86.40;;;;;;8324470;28;20107;-69
2021/03/19 01:38:13;;;;;;;9.75;3.80;;;0.90;86.10;;;;;;8291334;28;20053;-69
2021/03/19 01:42:17;;;;;;;6.38;3.70;;;0.90;86.60;;;;;;8297630;28;20503;-69
2021/03/19 01:47:02;;;;;;;5.57;3.55;;;0.90;87.00;;;;;;8314317;28;20578;-69
2021/03/19 01:51:47;;;;;;;6.30;3.75;;;1.50;86.90;;;;;;8310343;28;20049;-69
2021/03/19 01:56:39;;;;;;;6.47;3.30;;;0.90;87.90;;;;;;8309732;28;20064;-69
2021/03/19 02:01:21;;;;;;;7.28;3.75;;;0.80;89.80;;;;;;8257800;28;20056;-69
2021/03/19 02:06:04;;;;;;;8.13;4.38;;;0.70;90.10;;;;;;8338819;28;20053;-69
2021/03/19 02:10:45;;;;;;;7.05;3.58;;;0.60;90.50;;;;;;8340395;28;20072;-70
2021/03/19 02:15:29;;;;;;;9.88;3.55;;;0.70;91.20;;;;;;8333851;28;20053;-71
2021/03/19 02:20:11;;;;;;;6.53;3.75;;;0.60;92.00;;;;;;8325231;28;20462;-71
2021/03/19 02:24:53;;;;;;;7.33;3.60;;;0.60;92.10;;;;;;8334627;28;20056;-70
2021/03/19 02:29:35;;;;;;;8.45;4.00;;;0.60;92.40;;;;;;8330424;28;20526;-70
2021/03/19 02:33:55;;;;;;;8.85;3.92;;;0.50;92.70;;;;;;8313279;28;20053;-70
2021/03/19 02:38:00;;;;;;;8.48;3.78;;;0.40;93.10;;;;;;8323099;28;20169;-70
2021/03/19 02:42:06;;;;;;;7.90;4.03;;;0.40;93.10;;;;;;8338229;28;20119;-69
2021/03/19 02:46:13;;;;;;;6.53;3.58;;;0.40;93.40;;;;;;8311278;28;20700;-70
2021/03/19 02:50:15;;;;;;;6.63;3.83;;;0.40;93.30;;;;;;8300583;28;20573;-68
2021/03/19 02:54:22;;;;;;;9.50;4.50;;;0.60;93.70;;;;;;8310173;28;20045;-69
2021/03/19 02:58:29;;;;;;;11.15;3.92;;;0.30;93.70;;;;;;8311778;28;20040;-70
2021/03/19 03:02:34;;;;;;;7.88;3.95;;;0.30;93.60;;;;;;8335645;28;20056;-70
2021/03/19 03:06:42;;;;;;;7.97;3.95;;;0.10;93.70;;;;;;8322188;28;20592;-70
2021/03/19 03:10:49;;;;;;;7.60;3.67;;;0.20;94.10;;;;;;8324216;28;20297;-70
2021/03/19 03:14:53;;;;;;;6.35;3.33;;;0.20;94.30;;;;;;8324547;28;20450;-70
2021/03/19 03:19:00;;;;;;;9.77;4.13;;;0.20;94.40;;;;;;8333621;28;20244;-70
2021/03/19 03:23:05;;;;;;;7.13;3.45;;;0.10;94.70;;;;;;8326486;28;20052;-69
2021/03/19 03:27:12;;;;;;;9.35;3.90;;;0.60;95.00;;;;;;8343708;28;20118;-69
2021/03/19 03:31:19;;;;;;;7.50;3.78;;;0.10;95.10;;;;;;8321863;28;20049;-69
2021/03/19 03:35:24;;;;;;;7.30;3.70;;;0.00;95.20;;;;;;8305397;28;20068;-69
2021/03/19 03:39:32;;;;;;;6.97;3.53;;;0.00;95.10;;;;;;8301254;28;20087;-69
2021/03/19 03:43:40;;;;;;;8.52;3.25;;;0.00;95.00;;;;;;8307886;28;20049;-68
2021/03/19 03:47:44;;;;;;;5.82;2.92;;;0.10;95.00;;;;;;8320713;28;20064;-69
2021/03/19 03:51:49;;;;;;;7.22;3.10;;;0.00;95.00;;;;;;8328377;28;20136;-68
2021/03/19 03:55:53;;;;;;;8.40;3.67;;;-0.10;95.00;;;;;;8325730;28;20791;-69
2021/03/19 04:00:00;;;;;;;7.93;3.20;;;-0.10;95.00;;;;;;8335813;28;20038;-69
2021/03/19 04:04:14;;;;;;;7.53;3.00;;;-0.20;94.80;;;;;;8324391;28;20507;-69
2021/03/19 04:08:22;;;;;;;6.63;2.60;;;0.00;94.90;;;;;;8331599;28;20080;-70
2021/03/19 04:12:27;;;;;;;4.80;2.53;;;-0.10;94.90;;;;;;8317736;28;20056;-70
2021/03/19 04:16:36;;;;;;;6.47;2.58;;;-0.10;94.50;;;;;;8326009;28;20055;-69
2021/03/19 04:20:46;;;;;;;6.95;2.60;;;-0.20;94.80;;;;;;8307481;28;20045;-69
2021/03/19 04:25:00;;;;;;;5.88;2.85;;;-0.10;94.30;;;;;;8296458;28;20094;-69
2021/03/19 04:29:04;;;;;;;6.55;3.28;;;-0.10;94.30;;;;;;8313927;28;20107;-70
2021/03/19 04:33:19;;;;;;;6.07;2.50;;;-0.10;94.00;;;;;;8297638;28;20048;-69
2021/03/19 04:37:25;;;;;;;10.43;3.15;;;0.10;94.40;;;;;;8303818;28;20511;-70
2021/03/19 04:41:30;;;;;;;5.28;2.58;;;0.00;94.10;;;;;;8321363;28;20041;-70
2021/03/19 04:45:39;;;;;;;5.78;2.70;;;0.10;94.40;;;;;;8327654;28;20048;-69
2021/03/19 04:49:48;;;;;;;7.00;3.13;;;0.00;94.60;;;;;;8328120;28;20053;-69
2021/03/19 04:53:57;;;;;;;7.20;2.60;;;0.00;94.50;;;;;;8309855;28;20350;-70
2021/03/19 04:58:02;;;;;;;6.78;2.78;;;-0.10;94.30;;;;;;8315591;28;20725;-69
2021/03/19 05:02:07;;;;;;;6.20;3.08;;;-0.10;94.50;;;;;;8316346;28;20033;-70
2021/03/19 05:06:13;;;;;;;4.90;2.50;;;0.00;94.20;;;;;;8296845;28;20190;-70
2021/03/19 05:10:24;;;;;;;4.53;2.38;;;0.40;94.70;;;;;;8310236;28;20049;-70
2021/03/19 05:14:30;;;;;;;4.35;2.05;;;0.10;94.70;;;;;;8310523;28;20620;-70
2021/03/19 05:18:37;;;;;;;5.13;2.38;;;-0.10;94.60;;;;;;8325171;28;20060;-69
2021/03/19 05:22:42;;;;;;;6.30;2.50;;;-0.10;94.50;;;;;;8310676;28;20049;-69
2021/03/19 05:26:46;;;;;;;5.65;2.95;;;0.20;94.50;;;;;;8330697;28;20056;-69
2021/03/19 05:30:55;;;;;;;6.20;2.38;;;0.10;94.40;;;;;;8317703;28;20088;-69
2021/03/19 05:35:03;;;;;;;4.10;2.05;;;0.10;94.50;;;;;;8326727;28;20522;-70
2021/03/19 05:39:11;;;;;;;3.60;2.08;;;0.00;94.40;;;;;;8339103;28;20053;-70
2021/03/19 05:43:22;;;;;;;4.47;2.50;;;0.10;94.40;;;;;;8325253;28;20244;-69
2021/03/19 05:47:28;;;;;;;6.85;2.38;;;0.20;94.40;;;;;;8308004;28;20076;-69
2021/03/19 05:51:47;;;;;;;6.72;2.45;;;1.20;94.60;;;;;;8308972;28;20675;-70
2021/03/19 05:56:16;;;;;;;4.65;2.55;;;0.30;93.90;;;;;;8287502;28;20056;-70
2021/03/19 06:00:29;;;;;;;6.90;3.08;;;0.30;93.90;;;;;;8336170;28;20574;-70
2021/03/19 06:04:36;;;;;;;6.53;3.08;;;0.90;94.60;;;;;;8321123;28;20598;-70
2021/03/19 06:08:46;;;;;;;5.45;2.88;;;0.40;94.40;;;;;;8307113;28;20090;-69
2021/03/19 06:13:13;;;;;;;7.03;3.25;;;0.30;94.60;;;;;;8306111;28;20466;-69
2021/03/19 06:17:45;;;;;;;5.95;3.00;;;0.50;94.60;;;;;;8274589;28;20046;-69
2021/03/19 06:22:20;;;;;;;6.50;3.03;;;0.40;94.10;;;;;;8314450;28;20083;-70
2021/03/19 06:26:39;;;;;;;6.55;2.92;;;0.60;94.20;;;;;;8307779;28;20061;-71
2021/03/19 06:30:43;;;;;;;6.65;3.00;;;0.80;94.60;;;;;;8319122;28;20122;-71
2021/03/19 06:35:08;;;;;;;7.07;3.05;;;0.60;94.60;;;;;;8304289;28;20083;-71
2021/03/19 06:39:24;;;;;;;8.25;3.25;;;0.70;94.30;;;;;;8306150;28;20075;-65
2021/03/19 06:43:29;;;;;;;6.03;2.50;;;0.70;94.70;;;;;;8307274;28;20053;-64
2021/03/19 06:47:47;;;;;;;5.65;2.15;;;0.80;94.40;;;;;;8310196;28;20045;-72
2021/03/19 06:52:14;;;;;;;7.95;2.53;;;0.70;94.70;;;;;;8336547;28;20040;-72
2021/03/19 06:56:23;;;;;;;4.45;2.17;;;1.00;94.90;;;;;;8298814;28;20049;-72
2021/03/19 07:00:52;;;;;;;5.13;2.53;;;1.30;95.00;;;;;;8326006;28;20052;-65
2021/03/19 07:05:04;;;;;;;6.38;3.10;;;1.40;94.00;;;;;;8338594;28;20542;-65
2021/03/19 07:09:31;;;;;;;5.35;2.55;;;1.40;94.00;;;;;;8325562;28;20081;-65
2021/03/19 07:14:00;;;;;;;5.57;2.90;;;1.30;93.90;;;;;;8318771;28;22979;-65
2021/03/19 07:18:42;;;;;;;6.97;2.70;;;1.30;94.30;;;;;;8311843;28;20107;-65
2021/03/19 07:23:08;;;;;;;7.03;2.58;;;1.30;94.40;;;;;;8317446;28;20187;-65
2021/03/19 07:27:29;;;;;;;3.92;2.38;;;1.80;94.80;;;;;;8301905;28;20075;-64
2021/03/19 07:31:52;;;;;;;7.10;2.90;;;1.40;94.80;;;;;;8306467;28;20073;-65
2021/03/19 07:36:30;;;;;;;7.50;2.80;;;1.50;95.80;;;;;;8306667;28;20511;-64
2021/03/19 07:41:23;;;;;;;6.70;3.28;;;1.50;95.00;;;;;;8320450;28;20052;-65
2021/03/19 07:45:30;;;;;;;4.75;2.58;;;1.60;94.60;;;;;;8306922;28;20061;-65
2021/03/19 07:50:03;;;;;;;6.47;2.78;;;1.70;94.20;;;;;;8313135;28;20126;-65
2021/03/19 07:54:10;;;;;;;6.28;2.80;;;1.60;94.50;;;;;;8318166;28;20503;-65
2021/03/19 07:58:32;;;;;;;5.78;2.90;;;2.00;95.10;;;;;;8321077;28;20102;-64
2021/03/19 08:02:43;;;;;;;;;;;1.90;94.70;;;;;;8317838;28;20546;-66
2021/03/19 08:06:55;;;;;;;8.38;3.25;;;2.10;97.20;;;;;;8314850;28;20019;-65
2021/03/19 08:11:24;;;;;;;8.13;3.17;;;2.00;97.10;;;;;;8323613;28;20514;-65
2021/03/19 08:15:55;;;;;;;6.85;2.80;;;2.40;96.10;;;;;;8326530;28;20056;-64
2021/03/19 08:20:23;;;;;;;6.13;2.88;;;2.40;95.90;;;;;;8326257;28;20140;-65
2021/03/19 08:24:56;;;;;;;5.63;2.47;;;2.80;98.50;;;;;;8332504;28;20164;-65
2021/03/19 08:29:25;;;;;;;7.85;3.33;;;2.80;98.40;;;;;;8330097;28;21986;-65
2021/03/19 08:33:53;;;;;;;6.28;2.38;;;2.90;98.80;;;;;;8332370;28;20522;-64
2021/03/19 08:38:23;;;;;;;6.90;2.80;;;3.00;99.90;;;;;;8347573;28;20503;-65
2021/03/19 08:42:38;;;;;;;4.72;2.35;;;3.10;99.40;;;;;;8325500;28;20525;-65
2021/03/19 08:47:07;;;;;;;6.90;2.65;;;3.40;99.90;;;;;;8323923;28;20056;-65
2021/03/19 08:51:30;;;;;;;5.72;2.40;;;3.50;99.90;;;;;;8339140;28;20056;-65
2021/03/19 08:55:39;;;;;;;4.38;2.03;;;3.90;99.90;;;;;;8334310;28;20041;-65
2021/03/19 08:59:44;;;;;;;4.45;2.05;;;3.80;99.90;;;;;;8330741;28;20045;-65
2021/03/19 09:03:54;;;;;;;5.05;1.98;;;3.80;99.20;;;;;;8323990;28;20060;-65
2021/03/19 09:08:22;;;;;;;5.35;2.20;;;3.70;99.90;;;;;;8319007;28;20771;-65
2021/03/19 09:12:31;;;;;;;5.57;2.35;;;3.80;99.90;;;;;;8332854;28;20586;-65
2021/03/19 09:16:56;;;;;;;3.92;1.77;;;3.80;99.90;;;;;;8319621;28;20056;-64
2021/03/19 09:21:36;;;;;;;8.25;2.05;;;4.10;99.90;;;;;;8326126;28;20499;-65
2021/03/19 09:25:54;;;;;;;3.25;0.85;;;3.90;99.90;;;;;;8320154;28;20053;-65
2021/03/19 09:30:22;;;;;;;1.52;0.75;;;4.10;98.30;;;;;;8320320;28;20114;-65
2021/03/19 09:34:45;;;;;;;3.80;0.50;;;3.90;98.40;;;;;;8303340;28;20361;-65
2021/03/19 09:38:51;;;;;;;4.03;0.98;;;3.70;98.60;;;;;;8337521;28;20052;-65
2021/03/19 09:42:56;;;;;;;1.17;0.60;;;3.80;99.30;;;;;;8333083;28;20051;-65
2021/03/19 09:47:04;;;;;;;4.95;1.20;;;3.70;98.70;;;;;;8328567;28;20128;-65
2021/03/19 09:51:27;;;;;;;1.60;0.65;;;3.90;98.60;;;;;;8325472;28;20471;-64
2021/03/19 09:55:42;;;;;;;3.08;0.95;;;3.70;99.20;;;;;;8323737;28;20764;-65
2021/03/19 10:00:07;;;;;;;2.40;1.15;;;3.70;98.90;;;;;;8334203;28;20072;-67
2021/03/19 10:04:30;;;;;;;1.60;0.73;;;3.80;97.70;;;;;;8351738;28;20044;-65
2021/03/19 10:08:34;;;;;;;1.88;0.95;;;3.80;98.60;;;;;;8326493;28;20049;-65
2021/03/19 10:12:38;;;;;;;0.77;0.40;;;3.80;98.50;;;;;;8343125;28;20052;-65
2021/03/19 10:16:42;;;;;;;1.77;0.80;;;3.50;99.70;;;;;;8322896;28;20048;-65
2021/03/19 10:21:12;;;;;;;4.97;0.75;;;3.60;98.90;;;;;;8331892;28;20082;-65
2021/03/19 10:25:31;;;;;;;1.90;0.90;;;3.60;99.30;;;;;;8350761;28;20458;-65
2021/03/19 10:29:44;;;;;;;3.78;1.10;;;3.50;98.30;;;;;;8307012;28;22203;-65
2021/03/19 10:34:05;;;;;;;2.83;1.10;;;3.60;99.10;;;;;;8330677;28;20430;-65
2021/03/19 10:38:23;;;;;;;2.90;1.25;;;3.50;97.90;;;;;;8326672;28;20075;-65
2021/03/19 10:42:34;;;;;;;1.80;0.80;;;3.50;98.60;;;;;;8339822;28;20632;-65
2021/03/19 10:47:08;;;;;;;2.10;0.77;;;3.50;99.00;;;;;;8329987;28;20056;-65
2021/03/19 10:51:32;;;;;;;2.60;1.10;;;3.60;98.70;;;;;;8336001;28;20099;-65
2021/03/19 10:55:37;;;;;;;1.80;0.80;;;3.60;99.20;;;;;;8325033;28;20075;-65
2021/03/19 10:59:44;;;;;;;4.32;1.30;;;3.50;99.00;;;;;;8324189;28;20552;-65
2021/03/19 11:03:51;;;;;;;4.70;1.20;;;3.60;98.30;;;;;;8326813;28;20122;-65
2021/03/19 11:08:16;;;;;;;4.32;1.50;;;3.60;97.80;;;;;;8337729;28;20051;-65
2021/03/19 11:12:23;;;;;;;2.70;1.10;;;3.80;97.70;;;;;;8332782;28;20558;-67
2021/03/19 11:16:40;;;;;;;3.22;1.00;;;3.90;97.90;;;;;;8336454;28;20385;-65
2021/03/19 11:20:48;;;;;;;1.67;0.77;;;4.00;96.60;;;;;;8324706;28;20061;-65
2021/03/19 11:24:52;;;;;;;2.45;1.00;;;4.20;96.90;;;;;;8318807;28;20419;-65
2021/03/19 11:29:19;;;;;;;1.33;0.68;;;4.40;96.40;;;;;;8301718;28;20037;-65
2021/03/19 11:33:24;;;;;;;3.13;0.65;;;4.40;97.20;;;;;;8346956;28;20049;-65
2021/03/19 11:37:28;;;;;;;2.00;0.75;;;4.50;96.40;;;;;;8312630;28;20049;-66
2021/03/19 11:41:38;;;;;;;1.88;1.10;;;4.50;96.30;;;;;;8321332;28;20053;-65
2021/03/19 11:45:43;;;;;;;2.88;0.90;;;4.50;96.70;;;;;;8322452;28;20496;-65
2021/03/19 11:49:49;;;;;;;2.45;0.93;;;4.60;96.20;;;;;;8303072;28;20045;-65
2021/03/19 11:54:00;;;;;;;2.05;0.80;;;4.50;96.10;;;;;;8329926;28;20107;-65
2021/03/19 11:58:05;;;;;;;2.50;0.95;;;4.50;96.20;;;;;;8323276;28;20440;-65
2021/03/19 12:02:35;;;;;;;7.55;1.13;;;4.50;96.20;;;;;;8287099;28;20644;-66
2021/03/19 12:06:43;;;;;;;1.77;0.83;;;4.60;96.40;;;;;;8310079;28;20132;-65
2021/03/19 12:10:48;;;;;;;1.60;0.90;;;4.40;96.10;;;;;;8330569;28;20489;-65
2021/03/19 12:14:55;;;;;;;0.75;0.40;;;4.40;96.40;;;;;;8328474;28;20045;-65
2021/03/19 12:19:02;;;;;;;1.65;0.85;;;4.20;96.90;;;;;;8320698;28;20051;-66
2021/03/19 12:23:10;;;;;;;2.22;0.65;;;4.40;96.30;;;;;;8324852;28;20045;-65
2021/03/19 12:27:19;;;;;;;1.75;0.90;;;4.10;96.30;;;;;;8332567;28;20514;-66
2021/03/19 12:31:27;;;;;;;6.35;2.95;;;5.30;96.50;;;;;;8333250;28;20056;-65
2021/03/19 12:35:33;;;;;;;1.42;0.80;;;4.30;96.20;;;;;;8324287;28;20647;-65
2021/03/19 12:39:37;;;;;;;4.07;1.08;;;4.20;95.80;;;;;;8308979;28;20051;-66
2021/03/19 12:43:42;;;;;;;3.38;0.77;;;4.30;96.00;;;;;;8344594;28;20049;-65
2021/03/19 12:47:48;;;;;;;2.35;0.88;;;4.30;95.30;;;;;;8333397;28;20057;-66
2021/03/19 12:51:52;;;;;;;4.82;1.38;;;4.30;95.20;;;;;;8342575;28;20055;-66
2021/03/19 12:56:04;;;;;;;1.23;0.63;;;4.30;95.10;;;;;;8332598;28;20044;-65
2021/03/19 13:00:11;;;;;;;1.85;0.68;;;4.70;94.60;;;;;;8330797;28;21264;-65
2021/03/19 13:04:18;;;;;;;1.48;0.82;;;4.60;94.60;;;;;;8329367;28;20157;-65
2021/03/19 13:08:25;;;;;;;2.53;1.00;;;4.60;94.10;;;;;;8328445;28;20545;-65
2021/03/19 13:12:29;;;;;;;1.80;0.80;;;4.90;94.20;;;;;;8354510;28;20053;-65
2021/03/19 13:16:33;;;;;;;1.80;0.60;;;4.90;93.30;;;;;;8330460;28;20041;-64
2021/03/19 13:20:43;;;;;;;2.03;0.50;;;5.10;92.70;;;;;;8349287;28;20047;-64
2021/03/19 13:24:47;;;;;;;0.73;0.50;;;5.20;92.50;;;;;;8332399;28;20079;-65
2021/03/19 13:28:51;;;;;;;0.85;0.50;;;5.10;92.00;;;;;;8349348;28;20049;-65
2021/03/19 13:32:56;;;;;;;1.58;0.70;;;5.10;91.80;;;;;;8334475;28;20878;-65
2021/03/19 13:37:02;;;;;;;2.10;0.70;;;5.00;92.20;;;;;;8331446;28;20096;-65
2021/03/19 13:41:09;;;;;;;1.85;0.70;;;5.00;92.90;;;;;;8349404;28;20049;-64
2021/03/19 13:45:17;;;;;;;1.73;0.88;;;4.90;92.10;;;;;;8332285;28;20049;-65
2021/03/19 13:49:23;;;;;;;3.75;0.90;;;4.80;92.50;;;;;;8336774;28;20087;-65
2021/03/19 13:53:32;;;;;;;1.98;0.90;;;4.80;92.00;;;;;;8330802;28;20037;-65
2021/03/19 13:57:50;;;;;;;2.38;1.17;;;4.70;92.60;;;;;;8341544;28;20048;-65
2021/03/19 14:01:59;;;;;;;2.00;1.02;;;4.60;92.80;;;;;;8347452;28;20053;-65
2021/03/19 14:06:09;;;;;;;2.35;0.90;;;4.70;92.60;;;;;;8331287;28;20045;-65
2021/03/19 14:10:16;;;;;;;2.65;1.10;;;4.60;92.20;;;;;;8317674;28;20098;-65
2021/03/19 14:14:22;;;;;;;1.58;0.65;;;4.50;93.00;;;;;;8313238;28;20033;-65
2021/03/19 14:18:29;;;;;;;3.40;1.00;;;4.90;92.80;;;;;;8327607;28;20425;-65
2021/03/19 14:22:36;;;;;;;2.78;1.10;;;4.30;93.30;;;;;;8339957;28;20110;-68
2021/03/19 14:26:40;;;;;;;3.47;1.40;;;4.30;93.40;;;;;;8329511;28;20075;-65
2021/03/19 14:30:44;;;;;;;2.53;1.05;;;4.30;93.50;;;;;;8338132;28;20049;-65
2021/03/19 14:34:48;;;;;;;2.87;1.03;;;4.30;93.60;;;;;;8331947;28;20079;-65
2021/03/19 14:38:57;;;;;;;2.25;1.15;;;4.30;93.90;;;;;;8325753;28;20053;-66
2021/03/19 14:43:05;;;;;;;2.50;1.33;;;4.20;94.20;;;;;;8313884;28;20041;-65
2021/03/19 14:47:10;;;;;;;1.50;0.82;;;3.40;94.70;;;;;;8332050;28;20052;-65
2021/03/19 14:51:20;;;;;;;3.30;1.00;;;4.10;95.30;;;;;;8341179;28;20292;-65
2021/03/19 14:55:27;;;;;;;2.38;1.42;;;4.00;95.70;;;;;;8344777;28;20102;-65
2021/03/19 14:59:31;;;;;;;4.97;1.75;;;3.90;95.60;;;;;;8328584;28;20052;-65
2021/03/19 15:03:38;;;;;;;5.55;1.40;;;4.00;95.50;;;;;;8325034;28;20587;-65
2021/03/19 15:07:45;;;;;;;2.80;1.20;;;3.90;95.30;;;;;;8331305;28;20263;-65
2021/03/19 15:11:52;;;;;;;1.88;1.05;;;3.80;95.40;;;;;;8332630;28;20045;-65
2021/03/19 15:15:57;;;;;;;4.57;1.73;;;4.00;95.50;;;;;;8320974;28;20053;-65
2021/03/19 15:20:08;;;;;;;6.78;1.80;;;4.30;95.30;;;;;;8339616;28;20048;-65
2021/03/19 15:24:14;;;;;;;4.50;1.73;;;4.20;95.20;;;;;;8329683;28;20041;-65
2021/03/19 15:28:19;;;;;;;5.25;1.15;;;4.10;95.30;;;;;;8336204;28;20127;-65
2021/03/19 15:32:24;;;;;;;6.07;1.77;;;3.90;95.50;;;;;;8329709;28;20045;-65
2021/03/19 15:36:28;;;;;;;7.80;2.30;;;4.00;95.60;;;;;;8329288;28;20098;-64
2021/03/19 15:40:40;;;;;;;16.08;7.47;;;3.70;95.50;;;;;;8325601;28;20057;-64
2021/03/19 15:44:45;;;;;;;;;;;3.20;95.90;;;;;;8327514;28;20370;-65
2021/03/19 15:48:47;;;;;;;3.58;1.35;;;3.70;97.50;;;;;;8328594;28;20391;-64
2021/03/19 15:52:51;;;;;;;5.68;2.45;;;3.60;96.40;;;;;;8323839;28;20448;-64
2021/03/19 15:56:53;;;;;;;4.00;1.90;;;3.60;95.90;;;;;;8323001;28;20045;-65
2021/03/19 16:00:57;;;;;;;4.00;1.45;;;3.60;96.10;;;;;;8305122;28;20048;-65
2021/03/19 16:05:06;;;;;;;3.58;1.50;;;3.60;95.80;;;;;;8333728;28;20227;-65
2021/03/19 16:09:11;;;;;;;4.30;1.80;;;4.20;95.80;;;;;;8334261;28;20054;-64
2021/03/19 16:13:19;;;;;;;4.80;2.50;;;3.80;95.30;;;;;;8329402;28;20534;-65
2021/03/19 16:17:26;;;;;;;4.78;1.70;;;3.60;95.40;;;;;;8335043;28;20130;-65
2021/03/19 16:21:30;;;;;;;11.02;5.55;;;3.80;95.00;;;;;;8334142;28;20048;-65
2021/03/19 16:25:35;;;;;;;5.93;2.10;;;3.90;95.00;;;;;;8342871;28;20064;-64
2021/03/19 16:29:42;;;;;;;3.92;1.75;;;4.00;94.70;;;;;;8330353;28;20052;-65
2021/03/19 16:33:51;;;;;;;5.55;1.92;;;3.90;94.70;;;;;;8347775;28;20057;-65
2021/03/19 16:37:56;;;;;;;5.78;2.15;;;3.90;94.60;;;;;;8306589;22;20140;-63
2021/03/19 16:42:27;;;;;;;5.60;2.10;;;3.60;94.70;;;;;;8211269;28;20057;-65
2021/03/19 16:46:34;;;;;;;2.97;1.65;;;3.70;94.70;;;;;;8219501;28;20448;-65
2021/03/19 16:50:40;;;;;;;7.38;1.95;;;3.90;94.70;;;;;;8213996;28;20801;-64
2021/03/19 16:54:44;;;;;;;15.93;2.25;;;3.80;94.80;;;;;;8210150;28;20082;-65
2021/03/19 16:58:48;;;;;;;9.57;2.17;;;3.60;94.00;;;;;;8181042;28;21386;-65
2021/03/19 17:02:52;;;;;;;6.07;2.53;;;3.40;93.30;;;;;;8202381;28;20058;-65
2021/03/19 17:06:57;;;;;;;3.78;1.45;;;3.40;92.90;;;;;;8222994;28;20177;-65
2021/03/19 17:11:02;;;;;;;7.53;1.88;;;3.20;92.30;;;;;;8188013;28;20047;-65
2021/03/19 17:15:06;;;;;;;8.07;2.17;;;3.30;92.80;;;;;;8208837;28;20050;-64
2021/03/19 17:19:13;;;;;;;7.22;2.65;;;3.30;92.10;;;;;;8233407;28;20642;-65
2021/03/19 17:23:18;;;;;;;5.05;1.83;;;3.10;91.80;;;;;;8208437;28;20082;-65
2021/03/19 17:27:27;;;;;;;4.00;1.50;;;3.10;91.90;;;;;;8216670;28;20046;-65
2021/03/19 17:31:31;;;;;;;3.53;1.00;;;3.10;91.80;;;;;;8207510;28;20054;-64
2021/03/19 17:35:37;;;;;;;3.03;1.25;;;3.50;91.20;;;;;;8222950;28;20054;-65
2021/03/19 17:39:46;;;;;;;3.38;1.30;;;3.00;91.00;;;;;;8224290;28;20555;-64
2021/03/19 17:43:51;;;;;;;4.65;1.33;;;2.70;91.70;;;;;;8214541;28;20042;-65
2021/03/19 17:47:56;;;;;;;3.42;1.17;;;2.70;91.80;;;;;;8197320;28;20050;-65
2021/03/19 17:52:01;;;;;;;4.60;0.95;;;2.70;90.50;;;;;;8224138;28;20058;-64
2021/03/19 17:56:26;;;;;;;8.05;1.70;;;2.80;91.30;;;;;;8171070;28;32631;-65
2021/03/19 18:00:30;;;;;;;8.48;1.20;;;2.50;91.90;;;;;;8167567;28;20087;-65
2021/03/19 18:04:35;;;;;;;11.23;4.03;;;2.50;90.10;;;;;;8212158;28;20051;-65
2021/03/19 18:08:50;;;;;;;13.68;4.82;;;2.50;89.10;;;;;;8216390;28;20077;-65
2021/03/19 18:12:57;;;;;;;10.88;4.90;;;2.10;90.10;;;;;;8203296;28;20061;-64
2021/03/19 18:17:01;;;;;;;4.07;1.70;;;2.20;90.60;;;;;;8222861;28;20035;-65
2021/03/19 18:21:09;;;;;;;4.88;1.88;;;2.10;90.00;;;;;;8226677;28;20050;-65
2021/03/19 18:25:15;;;;;;;8.02;3.85;;;2.20;91.30;;;;;;8207872;28;20105;-64
2021/03/19 18:29:19;;;;;;;7.07;3.22;;;1.80;90.00;;;;;;8213380;28;20046;-65
2021/03/19 18:33:26;;;;;;;7.38;2.33;;;2.00;90.00;;;;;;8204987;28;20046;-64
2021/03/19 18:37:33;;;;;;;4.45;2.20;;;1.90;90.80;;;;;;8204039;28;20063;-64
2021/03/19 18:41:38;;;;;;;7.72;2.60;;;1.90;89.30;;;;;;8222734;28;20609;-64
2021/03/19 18:45:46;;;;;;;9.88;5.25;;;2.00;88.80;;;;;;8214211;28;20740;-64
2021/03/19 18:49:57;;;;;;;10.40;4.72;;;1.90;90.10;;;;;;8220952;28;20571;-64
2021/03/19 18:54:01;;;;;;;15.70;13.10;;;1.90;88.80;;;;;;8221384;28;20050;-65
2021/03/19 18:58:06;;;;;;;7.43;4.68;;;1.80;88.40;;;;;;8206190;28;20060;-64
2021/03/19 19:02:10;;;;;;;6.63;3.70;;;1.70;89.90;;;;;;8221530;28;20105;-64
2021/03/19 19:06:34;;;;;;;11.23;5.70;;;1.80;87.60;;;;;;8211676;28;20070;-64
2021/03/19 19:10:39;;;;;;;9.02;4.45;;;1.90;90.20;;;;;;8212181;28;20047;-64
2021/03/19 19:14:43;;;;;;;8.88;4.15;;;1.70;90.00;;;;;;8213344;28;20101;-64
2021/03/19 19:18:47;;;;;;;7.20;3.38;;;1.70;89.90;;;;;;8215137;28;20142;-64
2021/03/19 19:22:54;;;;;;;6.50;2.60;;;1.60;89.10;;;;;;8205971;28;20038;-64
2021/03/19 19:27:00;;;;;;;6.57;2.80;;;1.80;89.10;;;;;;8208710;28;20050;-64
2021/03/19 19:31:06;;;;;;;8.10;2.92;;;1.60;89.80;;;;;;8210371;28;20046;-64
2021/03/19 19:35:11;;;;;;;40.95;19.17;;;1.60;89.70;;;;;;8229346;28;20046;-64
2021/03/19 19:39:16;;;;;;;40.65;18.38;;;1.50;89.30;;;;;;8204711;28;20139;-64
2021/03/19 19:43:21;;;;;;;17.90;8.98;;;1.50;90.00;;;;;;8197293;28;20047;-69
2021/03/19 19:47:31;;;;;;;17.67;9.20;;;1.40;88.90;;;;;;8205027;28;20059;-70
2021/03/19 19:51:41;;;;;;;12.60;4.63;;;1.50;89.90;;;;;;8206028;28;21458;-70
2021/03/19 19:55:48;;;;;;;11.87;5.87;;;1.40;90.30;;;;;;8228000;28;20059;-69
2021/03/19 19:59:52;;;;;;;15.98;7.13;;;1.30;90.70;;;;;;8218276;28;20464;-69
2021/03/19 20:04:00;;;;;;;8.07;2.90;;;1.20;91.10;;;;;;8223611;28;20767;-69
2021/03/19 20:08:05;;;;;;;5.03;2.60;;;1.20;91.20;;;;;;8228287;28;20054;-70
2021/03/19 20:12:09;;;;;;;5.45;2.33;;;1.20;91.20;;;;;;8188949;28;20057;-70
2021/03/19 20:16:13;;;;;;;9.85;3.13;;;1.20;91.50;;;;;;8237899;28;20042;-70
2021/03/19 20:20:19;;;;;;;6.60;2.90;;;1.10;91.50;;;;;;8213212;28;20042;-70
2021/03/19 20:24:25;;;;;;;8.73;2.83;;;1.20;91.70;;;;;;8190875;28;20074;-69
2021/03/19 20:28:34;;;;;;;6.45;2.95;;;1.10;91.50;;;;;;8222829;28;20046;-70
2021/03/19 20:32:39;;;;;;;10.68;3.08;;;1.10;91.90;;;;;;8220085;28;20434;-69
2021/03/19 20:36:52;;;;;;;9.77;3.35;;;1.00;91.90;;;;;;8226509;28;20047;-70
2021/03/19 20:40:56;;;;;;;9.05;3.50;;;1.10;92.00;;;;;;8202859;28;20130;-70
2021/03/19 20:45:01;;;;;;;9.10;3.70;;;0.90;91.80;;;;;;8217976;28;20410;-70
2021/03/19 20:49:09;;;;;;;6.53;3.08;;;0.90;91.90;;;;;;8215321;28;20109;-70
2021/03/19 20:53:21;;;;;;;7.38;3.17;;;0.80;91.90;;;;;;8212674;28;20098;-69
2021/03/19 20:57:28;;;;;;;7.28;3.13;;;0.80;92.00;;;;;;8213127;28;20435;-70
2021/03/19 21:01:34;;;;;;;7.50;2.60;;;0.80;92.00;;;;;;8223482;28;20058;-70
2021/03/19 21:05:40;;;;;;;5.32;2.08;;;0.70;92.10;;;;;;8222557;28;20488;-71
2021/03/19 21:09:47;;;;;;;4.30;2.17;;;0.70;92.10;;;;;;8232024;28;20055;-70
2021/03/19 21:13:53;;;;;;;6.72;2.20;;;0.70;92.10;;;;;;8234277;28;20521;-70
2021/03/19 21:18:00;;;;;;;4.40;1.90;;;0.70;92.20;;;;;;8214762;28;20164;-70
2021/03/19 21:22:08;;;;;;;7.38;2.55;;;1.30;92.80;;;;;;8225255;28;20567;-70
2021/03/19 21:26:12;;;;;;;5.05;2.20;;;0.50;92.20;;;;;;8228142;28;20047;-70
2021/03/19 21:30:17;;;;;;;4.88;2.08;;;0.50;92.20;;;;;;8195999;28;20050;-70
2021/03/19 21:34:23;;;;;;;3.20;1.85;;;0.50;92.20;;;;;;8214664;28;20062;-70
2021/03/19 21:38:36;;;;;;;7.65;2.53;;;0.40;92.30;;;;;;8225621;28;20476;-70
2021/03/19 21:42:39;;;;;;;7.45;2.80;;;0.30;92.30;;;;;;8217999;28;20045;-70
2021/03/19 21:46:44;;;;;;;4.72;2.38;;;0.40;92.30;;;;;;8196311;28;20527;-70
2021/03/19 21:50:51;;;;;;;4.63;2.50;;;0.30;92.30;;;;;;8206511;28;20113;-70
2021/03/19 21:54:56;;;;;;;4.97;1.90;;;0.30;92.50;;;;;;8225031;28;20062;-70
2021/03/19 21:59:04;;;;;;;5.10;1.85;;;0.30;92.40;;;;;;8236418;28;20100;-70
2021/03/19 22:03:08;;;;;;;5.63;1.88;;;-0.60;91.90;;;;;;8231631;28;20137;-69